Ilford, Canada
Current Conditions -  °F | °C
As of 9:00 PM on Saturday 20 Dec 2014 (Local Time) from CYGX Reporting Station
Light Snow Light Snow  
Wind Chill: 13°   Ceiling: 1400
Heat Index: 19°   Visibility: 10mi
Dew Point: 18°   Wind: 5mph
Humidity: 93%   Direction: 180°S
Pressure: 29.89"   Gusts: NA
Location:  56.04°N, 95.58°W
Report Text: CYGX 210300Z 18004KT 10SM -SN OVC014 M07/M08 A2989 RMK SC8 SLP134
Loading
Personal Weather Stations






























Interactive Weather Map New forecast layout! Learn more

10-Day Weather Forecast

Advertisements
Track Severe Weather on mobile